Raritan, Illinois
Current Conditions -  °F | °C
As of 11:35 PM on Thursday 27 Nov 2014 (Local Time) from KMQB Reporting Station
Overcast Overcast  
Wind Chill:   Ceiling: 10000
Heat Index: 13°   Visibility: 10mi
Dew Point:   Wind: 6mph
Humidity: 75%   Direction: 90°E
Pressure: 30.42"   Gusts: NA
Location:  40.7°N, 90.83°W
Report Text: KMQB 280535Z AUTO 09005KT 10SM SCT070 OVC100 M10/M14 A3042 RMK AO2 T11051142
Loading
Personal Weather Stations






























Interactive Weather Map New forecast layout! Learn more

10-Day Weather Forecast

Advertisements
Track Severe Weather on mobile